Time;durP1;ratioP1;P1;durP2;ratioP2;P2;SDS_P1;SDS_P2;PMS_P1;PMS_P2;Temp;Humidity;BMP_temperature;BMP_pressure;BME280_temperature;BME280_humidity;BME280_pressure;Samples;Min_cycle;Max_cycle;Signal;HPM_P1;HPM_P2
2023/07/10 00:01:26;;;;;;;;;;;13.90;99.90;;;;;;5093897;28;20294;-67
2023/07/10 00:03:52;;;;;;;;;;;13.90;99.90;;;;;;5093812;28;19944;-67
2023/07/10 00:06:20;;;;;;;;;;;14.00;99.90;;;;;;5093935;28;19923;-68
2023/07/10 00:08:46;;;;;;;;;;;14.00;99.90;;;;;;5093734;28;20011;-68
2023/07/10 00:11:23;;;;;;;;;;;14.20;99.90;;;;;;5093639;28;19956;-68
2023/07/10 00:13:50;;;;;;;;;;;14.20;99.90;;;;;;5093800;28;19909;-67
2023/07/10 00:16:19;;;;;;;;;;;14.30;99.90;;;;;;5093694;28;19908;-68
2023/07/10 00:18:45;;;;;;;;;;;14.30;99.60;;;;;;5093642;28;20010;-67
2023/07/10 00:21:12;;;;;;;;;;;14.40;99.40;;;;;;5093462;28;19960;-67
2023/07/10 00:23:39;;;;;;;;;;;14.50;99.20;;;;;;5093533;28;20376;-68
2023/07/10 00:26:20;;;;;;;;;;;14.60;99.10;;;;;;5093244;28;20386;-67
2023/07/10 00:28:53;;;;;;;;;;;14.60;99.10;;;;;;5093629;28;19966;-68
2023/07/10 00:31:20;;;;;;;;;;;14.70;98.80;;;;;;5093265;28;19908;-63
2023/07/10 00:33:47;;;;;;;;;;;14.90;98.80;;;;;;5093589;28;19908;-66
2023/07/10 00:36:25;;;;;;;;;;;14.90;98.00;;;;;;5093403;28;20041;-67
2023/07/10 00:38:52;;;;;;;;;;;15.00;98.10;;;;;;5093217;28;20012;-67
2023/07/10 00:41:19;;;;;;;;;;;15.00;98.10;;;;;;5093532;28;19915;-68
2023/07/10 00:43:47;;;;;;;;;;;15.10;97.80;;;;;;5093413;28;19953;-67
2023/07/10 00:46:23;;;;;;;;;;;15.10;97.50;;;;;;5093013;28;20300;-66
2023/07/10 00:48:52;;;;;;;;;;;15.10;97.60;;;;;;5092382;28;19908;-68
2023/07/10 00:51:24;;;;;;;;;;;15.30;97.60;;;;;;5093796;28;19953;-65
2023/07/10 00:53:51;;;;;;;;;;;15.40;97.70;;;;;;5093034;28;20007;-66
2023/07/10 00:56:19;;;;;;;;;;;15.40;97.30;;;;;;5093215;28;20396;-69
2023/07/10 00:58:47;;;;;;;;;;;15.50;97.20;;;;;;5092920;28;19908;-67
2023/07/10 01:01:21;;;;;;;;;;;15.60;96.70;;;;;;5092731;28;19919;-65
2023/07/10 01:03:50;;;;;;;;;;;15.60;96.60;;;;;;5092264;28;20054;-67
2023/07/10 01:06:26;;;;;;;;;;;15.70;96.50;;;;;;5092818;28;19916;-68
2023/07/10 01:09:01;;;;;;;;;;;15.80;96.40;;;;;;5093145;28;19953;-67
2023/07/10 01:11:27;;;;;;;;;;;15.80;96.20;;;;;;5093258;28;19916;-69
2023/07/10 01:13:56;;;;;;;;;;;15.80;95.90;;;;;;5092861;28;19935;-65
2023/07/10 01:16:23;;;;;;;;;;;15.80;95.50;;;;;;5092622;28;20312;-64
2023/07/10 01:18:50;;;;;;;;;;;15.90;95.60;;;;;;5092903;28;19915;-67
2023/07/10 01:21:23;;;;;;;;;;;15.90;95.20;;;;;;5092616;28;19998;-65
2023/07/10 01:23:50;;;;;;;;;;;15.90;95.30;;;;;;5092970;28;20320;-67
2023/07/10 01:26:16;;;;;;;;;;;16.00;95.20;;;;;;5092649;28;20015;-64
2023/07/10 01:28:43;;;;;;;;;;;16.00;95.60;;;;;;5092616;28;19908;-68
2023/07/10 01:31:12;;;;;;;;;;;16.20;95.50;;;;;;5092459;28;20427;-68
2023/07/10 01:33:43;;;;;;;;;;;16.30;94.80;;;;;;5092591;28;19908;-66
2023/07/10 01:36:12;;;;;;;;;;;16.40;94.90;;;;;;5092576;28;20281;-67
2023/07/10 01:38:43;;;;;;;;;;;16.40;94.30;;;;;;5092815;28;19914;-67
2023/07/10 01:41:22;;;;;;;;;;;16.40;94.70;;;;;;5092456;28;19966;-64
2023/07/10 01:43:49;;;;;;;;;;;16.40;94.80;;;;;;5092425;28;19947;-65
2023/07/10 01:46:20;;;;;;;;;;;16.60;94.40;;;;;;5092379;28;19920;-67
2023/07/10 01:48:48;;;;;;;;;;;16.70;94.10;;;;;;5092671;28;19912;-67
2023/07/10 01:51:14;;;;;;;;;;;16.70;94.20;;;;;;5092291;28;19915;-67
2023/07/10 01:53:43;;;;;;;;;;;16.80;94.00;;;;;;5092197;28;19908;-66
2023/07/10 01:56:10;;;;;;;;;;;16.80;93.90;;;;;;5092260;28;20345;-68
2023/07/10 01:58:36;;;;;;;;;;;16.90;93.50;;;;;;5092483;28;20363;-69
2023/07/10 02:01:03;;;;;;;;;;;17.00;93.80;;;;;;5095869;28;19908;-68
2023/07/10 02:03:29;;;;;;;;;;;17.20;93.60;;;;;;5096368;28;19991;-68
2023/07/10 02:05:56;;;;;;;;;;;17.30;92.80;;;;;;5096250;28;20003;-68
2023/07/10 02:08:23;;;;;;;;;;;17.30;92.50;;;;;;5096412;28;19912;-69
2023/07/10 02:10:49;;;;;;;;;;;17.40;92.60;;;;;;5095918;28;19915;-66
2023/07/10 02:13:16;;;;;;;;;;;17.50;92.70;;;;;;5095788;28;19908;-68
2023/07/10 02:15:43;;;;;;;;;;;17.50;92.70;;;;;;5095757;28;19908;-68
2023/07/10 02:18:10;;;;;;;;;;;17.50;92.30;;;;;;5096025;28;19908;-68
2023/07/10 02:20:39;;;;;;;;;;;17.60;92.60;;;;;;5095797;28;19966;-67
2023/07/10 02:23:05;;;;;;;;;;;17.60;92.40;;;;;;5095928;28;19919;-68
2023/07/10 02:25:32;;;;;;;;;;;17.60;92.40;;;;;;5095893;28;20385;-68
2023/07/10 02:27:59;;;;;;;;;;;17.60;92.30;;;;;;5095552;28;19908;-66
2023/07/10 02:30:26;;;;;;;;;;;17.60;92.10;;;;;;5095524;28;19993;-69
2023/07/10 02:32:52;;;;;;;;;;;17.60;92.20;;;;;;5095452;28;19947;-68
2023/07/10 02:35:19;;;;;;;;;;;17.60;92.40;;;;;;5095398;28;19948;-68
2023/07/10 02:37:46;;;;;;;;;;;17.60;92.00;;;;;;5095586;28;19908;-66
2023/07/10 02:40:12;;;;;;;;;;;17.80;92.10;;;;;;5095356;28;20357;-67
2023/07/10 02:42:39;;;;;;;;;;;17.90;91.70;;;;;;5095621;28;19948;-67
2023/07/10 02:45:06;;;;;;;;;;;18.10;91.80;;;;;;5095237;28;19927;-68
2023/07/10 02:47:33;;;;;;;;;;;18.30;90.90;;;;;;5095253;28;19916;-68
2023/07/10 02:49:59;;;;;;;;;;;18.40;90.90;;;;;;5095219;28;19916;-69
2023/07/10 02:52:26;;;;;;;;;;;18.70;91.40;;;;;;5095334;28;19908;-67
2023/07/10 02:54:52;;;;;;;;;;;19.20;90.20;;;;;;5095376;28;19916;-67
2023/07/10 02:57:19;;;;;;;;;;;19.50;89.40;;;;;;5095204;28;20003;-67
2023/07/10 02:59:46;;;;;;;;;;;19.70;88.20;;;;;;5095277;28;19947;-68
2023/07/10 03:02:12;;;;;;;;;;;19.70;88.00;;;;;;5094856;28;19908;-69
2023/07/10 03:04:39;;;;;;;;;;;19.80;87.20;;;;;;5094716;28;19951;-68
2023/07/10 03:07:06;;;;;;;;;;;20.00;87.50;;;;;;5094976;28;20321;-68
2023/07/10 03:09:32;;;;;;;;;;;20.10;87.10;;;;;;5094862;28;19908;-68
2023/07/10 03:11:59;;;;;;;;;;;20.30;86.50;;;;;;5094075;28;19962;-69
2023/07/10 03:14:25;;;;;;;;;;;20.50;86.10;;;;;;5094861;28;19908;-67
2023/07/10 03:16:52;;;;;;;;;;;21.30;84.40;;;;;;5094836;28;20364;-67
2023/07/10 03:19:19;;;;;;;;;;;21.50;82.40;;;;;;5094786;28;19995;-69
2023/07/10 03:21:46;;;;;;;;;;;22.00;81.30;;;;;;5094714;28;20356;-67
2023/07/10 03:24:12;;;;;;;;;;;22.20;80.40;;;;;;5094718;28;20042;-66
2023/07/10 03:26:39;;;;;;;;;;;22.30;80.60;;;;;;5094588;28;19961;-67
2023/07/10 03:29:07;;;;;;;;;;;22.60;79.20;;;;;;5094498;28;19909;-67
2023/07/10 03:31:34;;;;;;;;;;;23.10;78.80;;;;;;5094326;28;19915;-63
2023/07/10 03:34:01;;;;;;;;;;;23.30;78.00;;;;;;5094602;28;19919;-67
2023/07/10 03:36:27;;;;;;;;;;;23.80;76.00;;;;;;5094532;28;20283;-68
2023/07/10 03:38:54;;;;;;;;;;;24.10;75.50;;;;;;5094371;28;19908;-68
2023/07/10 03:41:21;;;;;;;;;;;24.30;75.20;;;;;;5094572;28;19912;-68
2023/07/10 03:43:48;;;;;;;;;;;24.80;73.70;;;;;;5094445;28;19958;-69
2023/07/10 03:46:16;;;;;;;;;;;25.70;72.20;;;;;;5093992;28;19920;-65
2023/07/10 03:48:43;;;;;;;;;;;26.90;69.90;;;;;;5094382;28;20003;-68
2023/07/10 03:51:10;;;;;;;;;;;27.60;68.10;;;;;;5094208;28;19931;-67
2023/07/10 03:53:37;;;;;;;;;;;27.80;66.40;;;;;;5094165;28;19908;-68
2023/07/10 03:56:03;;;;;;;;;;;28.30;66.40;;;;;;5094461;28;20370;-66
2023/07/10 03:58:31;;;;;;;;;;;28.90;64.30;;;;;;5094034;28;19961;-67
2023/07/10 04:00:58;;;;;;;;;;;29.60;63.40;;;;;;5093909;28;20386;-67
2023/07/10 04:03:26;;;;;;;;;;;30.20;62.10;;;;;;5093992;28;20356;-65
2023/07/10 04:05:54;;;;;;;;;;;30.40;61.70;;;;;;5093918;28;19916;-67
2023/07/10 04:08:21;;;;;;;;;;;31.00;59.90;;;;;;5093932;28;19908;-67
2023/07/10 04:10:51;;;;;;;;;;;31.00;59.20;;;;;;5075912;28;19916;-67
2023/07/10 04:13:18;;;;;;;;;;;31.10;59.10;;;;;;5093792;28;19909;-68
2023/07/10 04:16:14;;;;;;;;;;;31.00;58.90;;;;;;5093427;28;20319;-69
2023/07/10 04:18:41;;;;;;;;;;;30.20;58.10;;;;;;5080422;28;20269;-69
2023/07/10 04:21:19;;;;;;;;;;;28.40;60.00;;;;;;5093422;28;19919;-68
2023/07/10 04:23:46;;;;;;;;;;;26.80;61.90;;;;;;5093301;28;19908;-67
2023/07/10 04:26:14;;;;;;;;;;;25.10;64.00;;;;;;5093420;28;19923;-70
2023/07/10 04:28:41;;;;;;;;;;;23.80;66.40;;;;;;5093689;28;19930;-68
2023/07/10 04:31:08;;;;;;;;;;;23.00;68.00;;;;;;5093676;28;19913;-69
2023/07/10 04:33:34;;;;;;;;;;;22.50;68.90;;;;;;5093754;28;19912;-68
2023/07/10 04:36:01;;;;;;;;;;;21.90;70.70;;;;;;5093503;28;19915;-68
2023/07/10 04:38:28;;;;;;;;;;;21.40;71.30;;;;;;5093338;28;19911;-69
2023/07/10 04:40:56;;;;;;;;;;;21.00;71.70;;;;;;5093494;28;19914;-68
2023/07/10 04:43:23;;;;;;;;;;;20.80;72.60;;;;;;5093210;28;19987;-64
2023/07/10 04:45:50;;;;;;;;;;;20.70;72.90;;;;;;5093113;28;19982;-70
2023/07/10 04:48:17;;;;;;;;;;;20.60;73.20;;;;;;5093310;28;19908;-68
2023/07/10 04:50:48;;;;;;;;;;;20.40;74.00;;;;;;5093001;28;19908;-65
2023/07/10 04:53:15;;;;;;;;;;;20.40;74.10;;;;;;5093306;28;19914;-70
2023/07/10 04:55:42;;;;;;;;;;;20.40;74.30;;;;;;5093018;28;19908;-68
2023/07/10 04:58:09;;;;;;;;;;;20.40;74.00;;;;;;5092967;28;20237;-68
2023/07/10 05:00:36;;;;;;;;;;;20.40;74.20;;;;;;5093099;28;19912;-69
2023/07/10 05:03:03;;;;;;;;;;;20.50;74.50;;;;;;5093022;28;20357;-69
2023/07/10 05:05:30;;;;;;;;;;;20.50;74.10;;;;;;5092664;28;20406;-69
2023/07/10 05:07:57;;;;;;;;;;;20.40;74.20;;;;;;5092831;28;19955;-68
2023/07/10 05:10:24;;;;;;;;;;;20.50;74.00;;;;;;5092894;28;19908;-69
2023/07/10 05:12:50;;;;;;;;;;;20.40;74.30;;;;;;5092914;28;20007;-68
2023/07/10 05:15:17;;;;;;;;;;;20.50;74.80;;;;;;5092730;28;20369;-69
2023/07/10 05:17:44;;;;;;;;;;;20.70;74.50;;;;;;5092701;28;19915;-68
2023/07/10 05:20:10;;;;;;;;;;;21.10;73.60;;;;;;5092451;28;19994;-67
2023/07/10 05:22:37;;;;;;;;;;;21.40;72.50;;;;;;5092843;28;19908;-69
2023/07/10 05:25:04;;;;;;;;;;;21.30;72.90;;;;;;5092599;28;19966;-69
2023/07/10 05:27:30;;;;;;;;;;;21.10;73.40;;;;;;5092997;28;20027;-68
2023/07/10 05:29:57;;;;;;;;;;;21.10;75.10;;;;;;5092628;28;19915;-68
2023/07/10 05:32:24;;;;;;;;;;;20.90;74.10;;;;;;5092670;28;19912;-68
2023/07/10 05:34:50;;;;;;;;;;;20.80;74.00;;;;;;5094520;28;19979;-68
2023/07/10 05:37:17;;;;;;;;;;;20.80;74.90;;;;;;5096925;28;19904;-68
2023/07/10 05:39:44;;;;;;;;;;;20.90;74.30;;;;;;5096668;28;20284;-69
2023/07/10 05:42:11;;;;;;;;;;;21.10;75.40;;;;;;5096868;28;19915;-68
2023/07/10 05:44:37;;;;;;;;;;;21.60;73.80;;;;;;5096454;28;19935;-69
2023/07/10 05:47:05;;;;;;;;;;;21.90;72.80;;;;;;5096604;28;19912;-68
2023/07/10 05:49:32;;;;;;;;;;;22.20;72.10;;;;;;5096468;28;20003;-70
2023/07/10 05:51:59;;;;;;;;;;;22.30;72.20;;;;;;5096559;28;19908;-69
2023/07/10 05:54:25;;;;;;;;;;;22.30;72.10;;;;;;5096569;28;19909;-68
2023/07/10 05:56:52;;;;;;;;;;;22.20;71.70;;;;;;5096577;28;19908;-69
2023/07/10 05:59:19;;;;;;;;;;;22.10;73.10;;;;;;5096371;28;19908;-69
2023/07/10 06:01:45;;;;;;;;;;;22.30;72.20;;;;;;5096450;28;19914;-67
2023/07/10 06:04:12;;;;;;;;;;;22.60;71.70;;;;;;5096313;28;20323;-68
2023/07/10 06:06:39;;;;;;;;;;;22.90;71.00;;;;;;5096036;28;19985;-68
2023/07/10 06:09:06;;;;;;;;;;;23.30;70.70;;;;;;5096263;28;20003;-68
2023/07/10 06:11:33;;;;;;;;;;;23.90;69.30;;;;;;5096252;28;20365;-67
2023/07/10 06:14:00;;;;;;;;;;;24.10;68.80;;;;;;5096263;28;19954;-68
2023/07/10 06:16:27;;;;;;;;;;;23.90;69.40;;;;;;5096025;28;19908;-68
2023/07/10 06:18:54;;;;;;;;;;;23.60;69.00;;;;;;5096101;28;19954;-68
2023/07/10 06:21:21;;;;;;;;;;;23.60;69.60;;;;;;5095992;28;19996;-68
2023/07/10 06:23:48;;;;;;;;;;;23.50;69.20;;;;;;5095868;28;19912;-68
2023/07/10 06:26:14;;;;;;;;;;;23.30;69.40;;;;;;5095894;28;19976;-66
2023/07/10 06:28:41;;;;;;;;;;;23.10;69.80;;;;;;5095999;28;19948;-67
2023/07/10 06:31:09;;;;;;;;;;;22.60;70.30;;;;;;5095759;28;19977;-69
2023/07/10 06:33:36;;;;;;;;;;;22.00;71.40;;;;;;5095750;28;19912;-68
2023/07/10 06:36:04;;;;;;;;;;;21.40;72.60;;;;;;5095427;28;20016;-68
2023/07/10 06:38:31;;;;;;;;;;;21.00;73.80;;;;;;5095788;28;19908;-69
2023/07/10 06:40:57;;;;;;;;;;;20.40;74.70;;;;;;5095698;28;19908;-68
2023/07/10 06:43:24;;;;;;;;;;;19.90;75.90;;;;;;5095514;28;19912;-67
2023/07/10 06:45:51;;;;;;;;;;;19.60;76.90;;;;;;5093912;28;19920;-68
2023/07/10 06:48:18;;;;;;;;;;;19.20;77.70;;;;;;5095532;28;19908;-68
2023/07/10 06:50:51;;;;;;;;;;;19.00;78.40;;;;;;5095357;28;19918;-68
2023/07/10 06:53:19;;;;;;;;;;;18.70;79.00;;;;;;5095389;28;19951;-68
2023/07/10 06:55:51;;;;;;;;;;;18.50;79.90;;;;;;5095535;28;19931;-69
2023/07/10 06:58:17;;;;;;;;;;;18.30;80.30;;;;;;5095170;28;19908;-68
2023/07/10 07:00:44;;;;;;;;;;;18.10;80.90;;;;;;5095461;28;19912;-68
2023/07/10 07:03:11;;;;;;;;;;;17.90;81.40;;;;;;5095119;28;19908;-69
2023/07/10 07:05:40;;;;;;;;;;;17.80;81.80;;;;;;5094890;28;19916;-69
2023/07/10 07:08:07;;;;;;;;;;;17.70;82.60;;;;;;5095295;28;19953;-68
2023/07/10 07:10:33;;;;;;;;;;;17.50;83.00;;;;;;5094981;28;19960;-69
2023/07/10 07:13:00;;;;;;;;;;;17.40;83.80;;;;;;5095103;28;20373;-65
2023/07/10 07:15:26;;;;;;;;;;;17.20;84.20;;;;;;5094843;28;20002;-65
2023/07/10 07:17:53;;;;;;;;;;;17.10;84.50;;;;;;5095116;28;19915;-68
2023/07/10 07:20:20;;;;;;;;;;;17.00;84.90;;;;;;5095003;28;19908;-68
2023/07/10 07:22:46;;;;;;;;;;;16.90;85.60;;;;;;5094827;28;19908;-69
2023/07/10 07:25:13;;;;;;;;;;;16.80;86.70;;;;;;5094417;28;19923;-68
2023/07/10 07:27:40;;;;;;;;;;;16.70;87.40;;;;;;5094908;28;19912;-69
2023/07/10 07:30:07;;;;;;;;;;;16.60;88.40;;;;;;5094551;28;19908;-69
2023/07/10 07:32:33;;;;;;;;;;;16.50;89.10;;;;;;5094681;28;19908;-69
2023/07/10 07:35:00;;;;;;;;;;;16.30;90.00;;;;;;5094700;28;20377;-69
2023/07/10 07:37:26;;;;;;;;;;;16.20;90.10;;;;;;5094382;28;19940;-68
2023/07/10 07:39:56;;;;;;;;;;;16.10;90.20;;;;;;5094402;28;19953;-68
2023/07/10 07:42:22;;;;;;;;;;;16.00;90.30;;;;;;5094204;28;19934;-69
2023/07/10 07:44:49;;;;;;;;;;;15.90;90.60;;;;;;5094324;28;19920;-68
2023/07/10 07:47:16;;;;;;;;;;;15.90;90.60;;;;;;5094341;28;19912;-68
2023/07/10 07:49:42;;;;;;;;;;;15.80;90.60;;;;;;5094261;28;19914;-68
2023/07/10 07:52:09;;;;;;;;;;;15.80;90.70;;;;;;5094159;28;20105;-68
2023/07/10 07:54:36;;;;;;;;;;;15.80;90.60;;;;;;5094375;28;19920;-68
2023/07/10 07:57:02;;;;;;;;;;;15.70;90.80;;;;;;5093791;28;20352;-69
2023/07/10 07:59:29;;;;;;;;;;;15.60;91.00;;;;;;5094042;28;19915;-67
2023/07/10 08:01:56;;;;;;;;;;;15.60;91.40;;;;;;5094055;28;19962;-65
2023/07/10 08:04:23;;;;;;;;;;;15.50;91.10;;;;;;5094257;28;20284;-64
2023/07/10 08:06:50;;;;;;;;;;;15.50;91.30;;;;;;5093845;28;19916;-66
2023/07/10 08:09:17;;;;;;;;;;;15.50;91.20;;;;;;5093834;28;19908;-70
2023/07/10 08:11:43;;;;;;;;;;;15.40;91.10;;;;;;5093697;28;19909;-66
2023/07/10 08:14:10;;;;;;;;;;;15.40;91.10;;;;;;5093888;28;19915;-66
2023/07/10 08:16:36;;;;;;;;;;;15.40;91.10;;;;;;5093592;28;19994;-68
2023/07/10 08:19:03;;;;;;;;;;;15.40;91.10;;;;;;5093366;28;19915;-67
2023/07/10 08:21:30;;;;;;;;;;;15.40;91.10;;;;;;5075633;28;20269;-69
2023/07/10 08:23:56;;;;;;;;;;;15.40;91.20;;;;;;5093678;28;19915;-70
2023/07/10 08:26:23;;;;;;;;;;;15.40;91.20;;;;;;5094058;28;19916;-69
2023/07/10 08:28:50;;;;;;;;;;;15.30;91.30;;;;;;5093927;28;19915;-68
2023/07/10 08:31:17;;;;;;;;;;;15.20;91.40;;;;;;5093664;28;19915;-69
2023/07/10 08:33:44;;;;;;;;;;;15.20;91.40;;;;;;5093529;28;20272;-69
2023/07/10 08:36:10;;;;;;;;;;;15.20;91.40;;;;;;5093463;28;19914;-67
2023/07/10 08:38:38;;;;;;;;;;;15.20;91.40;;;;;;5093534;28;19908;-69
2023/07/10 08:41:24;;;;;;;;;;;15.10;91.40;;;;;;5093425;28;20395;-68
2023/07/10 08:43:51;;;;;;;;;;;15.20;91.50;;;;;;5093125;28;19908;-67
2023/07/10 08:46:18;;;;;;;;;;;15.10;91.40;;;;;;5092793;28;20357;-70
2023/07/10 08:49:09;;;;;;;;;;;15.10;91.50;;;;;;5092482;28;20217;-69
2023/07/10 08:51:42;;;;;;;;;;;15.00;91.70;;;;;;5082657;28;19909;-69
2023/07/10 08:54:13;;;;;;;;;;;15.00;92.10;;;;;;5093161;28;19908;-68
2023/07/10 08:57:04;;;;;;;;;;;14.90;92.10;;;;;;5093122;28;19908;-69
2023/07/10 08:59:38;;;;;;;;;;;14.80;92.50;;;;;;5092889;28;19915;-67
2023/07/10 09:02:13;;;;;;;;;;;14.70;92.70;;;;;;5092731;28;19944;-68
2023/07/10 09:04:40;;;;;;;;;;;14.70;92.90;;;;;;5093045;28;20056;-68
2023/07/10 09:07:08;;;;;;;;;;;14.60;93.10;;;;;;5092807;28;19916;-68
2023/07/10 09:09:53;;;;;;;;;;;14.50;93.30;;;;;;5092135;28;19908;-69
2023/07/10 09:12:20;;;;;;;;;;;14.40;93.50;;;;;;5092966;28;19987;-69
2023/07/10 09:15:04;;;;;;;;;;;14.30;93.60;;;;;;5092780;28;19908;-68
2023/07/10 09:17:31;;;;;;;;;;;14.20;93.90;;;;;;5092834;28;19991;-68
2023/07/10 09:20:00;;;;;;;;;;;14.10;94.00;;;;;;5092765;28;19915;-68
2023/07/10 09:22:26;;;;;;;;;;;14.10;93.70;;;;;;5092916;28;19914;-68
2023/07/10 09:24:54;;;;;;;;;;;14.00;93.90;;;;;;5092852;28;20431;-67
2023/07/10 09:27:21;;;;;;;;;;;14.00;93.80;;;;;;5092877;28;19935;-69
2023/07/10 09:29:50;;;;;;;;;;;14.00;93.80;;;;;;5092701;28;19979;-67
2023/07/10 09:32:18;;;;;;;;;;;14.00;93.80;;;;;;5092635;28;19909;-68
2023/07/10 09:34:47;;;;;;;;;;;13.90;94.00;;;;;;5092916;28;19912;-68
2023/07/10 09:37:17;;;;;;;;;;;13.90;94.30;;;;;;5092894;28;19919;-66
2023/07/10 09:39:44;;;;;;;;;;;13.80;94.40;;;;;;5074609;28;19919;-70
2023/07/10 09:42:21;;;;;;;;;;;13.80;94.40;;;;;;5092667;28;19947;-66
2023/07/10 09:44:54;;;;;;;;;;;13.80;94.50;;;;;;5092378;28;19959;-69
2023/07/10 09:47:22;;;;;;;;;;;13.80;94.30;;;;;;5092573;28;19919;-69
2023/07/10 09:49:52;;;;;;;;;;;13.70;94.40;;;;;;5092585;28;19909;-69
2023/07/10 09:52:37;;;;;;;;;;;13.70;94.70;;;;;;5092779;28;20003;-69
2023/07/10 09:55:14;;;;;;;;;;;13.70;94.90;;;;;;5092514;28;19944;-69
2023/07/10 09:57:59;;;;;;;;;;;13.60;95.00;;;;;;5092508;28;19915;-69
2023/07/10 10:00:26;;;;;;;;;;;13.60;95.20;;;;;;5092582;28;19953;-68
2023/07/10 10:02:57;;;;;;;;;;;13.50;95.20;;;;;;5092587;28;19947;-69
2023/07/10 10:05:24;;;;;;;;;;;13.40;95.20;;;;;;5092301;28;20419;-71
2023/07/10 10:07:52;;;;;;;;;;;13.40;95.30;;;;;;5074188;28;19919;-68
2023/07/10 10:10:29;;;;;;;;;;;13.40;95.50;;;;;;5092511;28;20273;-71
2023/07/10 10:13:14;;;;;;;;;;;13.40;95.50;;;;;;5092611;28;20356;-69
2023/07/10 10:15:52;;;;;;;;;;;13.30;95.30;;;;;;5092169;28;19908;-70
2023/07/10 10:18:31;;;;;;;;;;;13.20;95.30;;;;;;5092173;28;19923;-70
2023/07/10 10:20:59;;;;;;;;;;;13.20;95.30;;;;;;5094484;28;19912;-70
2023/07/10 10:23:29;;;;;;;;;;;13.20;95.30;;;;;;5096084;28;19908;-67
2023/07/10 10:25:57;;;;;;;;;;;13.10;95.30;;;;;;5095625;28;19946;-69
2023/07/10 10:28:37;;;;;;;;;;;13.10;95.40;;;;;;5095654;28;19909;-69
2023/07/10 10:31:07;;;;;;;;;;;13.00;95.30;;;;;;5096049;28;19908;-69
2023/07/10 10:33:34;;;;;;;;;;;13.10;95.30;;;;;;5095958;28;19935;-67
2023/07/10 10:36:04;;;;;;;;;;;13.00;95.30;;;;;;5095780;28;19908;-69
2023/07/10 10:38:37;;;;;;;;;;;13.10;95.40;;;;;;5095754;28;19908;-67
2023/07/10 10:41:25;;;;;;;;;;;13.00;95.60;;;;;;5095621;28;19939;-68
2023/07/10 10:44:01;;;;;;;;;;;12.90;95.90;;;;;;5095592;28;19908;-68
2023/07/10 10:46:28;;;;;;;;;;;13.00;96.00;;;;;;5095483;28;19920;-70
2023/07/10 10:49:12;;;;;;;;;;;12.90;96.20;;;;;;5095536;28;19980;-69
2023/07/10 10:51:42;;;;;;;;;;;12.90;96.20;;;;;;5095844;28;20007;-69
2023/07/10 10:54:17;;;;;;;;;;;12.80;96.50;;;;;;5095413;28;19991;-68
2023/07/10 10:56:48;;;;;;;;;;;12.80;96.70;;;;;;5095352;28;19947;-69
2023/07/10 10:59:39;;;;;;;;;;;12.70;96.80;;;;;;5095345;28;19951;-68
2023/07/10 11:02:17;;;;;;;;;;;12.70;96.90;;;;;;5095430;28;19908;-69
2023/07/10 11:04:47;;;;;;;;;;;12.60;97.10;;;;;;5095187;28;19912;-70
2023/07/10 11:07:16;;;;;;;;;;;12.60;97.30;;;;;;5095244;28;19970;-69
2023/07/10 11:09:48;;;;;;;;;;;12.50;97.20;;;;;;5094882;28;19954;-68
2023/07/10 11:12:19;;;;;;;;;;;12.50;97.60;;;;;;5095002;28;19973;-70
2023/07/10 11:14:46;;;;;;;;;;;12.40;97.90;;;;;;5095237;28;19908;-70
2023/07/10 11:17:13;;;;;;;;;;;12.30;98.40;;;;;;5076937;28;19908;-69
2023/07/10 11:19:41;;;;;;;;;;;12.20;98.40;;;;;;5094955;28;19930;-69
2023/07/10 11:22:12;;;;;;;;;;;12.20;98.70;;;;;;5094807;28;19912;-68
2023/07/10 11:24:47;;;;;;;;;;;12.10;98.90;;;;;;5094578;28;20307;-67
2023/07/10 11:27:19;;;;;;;;;;;12.10;99.20;;;;;;5094777;28;19916;-68
2023/07/10 11:29:53;;;;;;;;;;;12.00;99.50;;;;;;5094760;28;20359;-69
2023/07/10 11:32:20;;;;;;;;;;;11.90;99.70;;;;;;5094074;28;19974;-68
2023/07/10 11:34:53;;;;;;;;;;;11.90;99.90;;;;;;5094755;28;19916;-70
2023/07/10 11:37:37;;;;;;;;;;;11.90;99.90;;;;;;5094649;28;19912;-68
2023/07/10 11:40:42;;;;;;;;;;;11.70;99.90;;;;;;5094713;28;20277;-70
2023/07/10 11:43:27;;;;;;;;;;;11.70;99.90;;;;;;5032273;28;20457;-70
2023/07/10 11:46:02;;;;;;;;;;;11.50;99.90;;;;;;5031942;28;19921;-69
2023/07/10 11:48:36;;;;;;;;;;;11.60;99.90;;;;;;5073242;28;19908;-69
2023/07/10 11:51:03;;;;;;;;;;;11.50;99.90;;;;;;5094344;28;19908;-69
2023/07/10 11:53:30;;;;;;;;;;;11.50;99.90;;;;;;5094348;28;20414;-69
2023/07/10 11:56:00;;;;;;;;;;;11.50;99.90;;;;;;5094374;28;19908;-70
2023/07/10 11:58:28;;;;;;;;;;;11.50;99.90;;;;;;5094000;28;19926;-70
2023/07/10 12:01:15;;;;;;;;;;;11.40;99.90;;;;;;5094104;28;19994;-67
2023/07/10 12:03:42;;;;;;;;;;;11.40;99.90;;;;;;5094058;28;19908;-68
2023/07/10 12:06:16;;;;;;;;;;;11.30;99.90;;;;;;5093852;28;20018;-67
2023/07/10 12:08:44;;;;;;;;;;;11.20;99.90;;;;;;5093974;28;19915;-68
2023/07/10 12:11:29;;;;;;;;;;;11.20;99.90;;;;;;5094040;28;19908;-69
2023/07/10 12:14:01;;;;;;;;;;;11.30;99.90;;;;;;5093864;28;19908;-68
2023/07/10 12:16:28;;;;;;;;;;;11.20;99.90;;;;;;5094019;28;20451;-69
2023/07/10 12:19:02;;;;;;;;;;;11.10;99.90;;;;;;5093856;28;19912;-70
2023/07/10 12:21:28;;;;;;;;;;;11.20;99.90;;;;;;5093798;28;19908;-68
2023/07/10 12:23:56;;;;;;;;;;;11.10;99.90;;;;;;5093729;28;19912;-68
2023/07/10 12:26:23;;;;;;;;;;;11.00;99.90;;;;;;5093601;28;20358;-68
2023/07/10 12:28:54;;;;;;;;;;;11.00;99.90;;;;;;5093574;28;20426;-69
2023/07/10 12:31:21;;;;;;;;;;;10.90;99.90;;;;;;5093435;28;19908;-69
2023/07/10 12:33:51;;;;;;;;;;;11.00;99.90;;;;;;5093785;28;19908;-68
2023/07/10 12:36:27;;;;;;;;;;;11.00;99.90;;;;;;5093471;28;19908;-69
2023/07/10 12:38:55;;;;;;;;;;;10.90;99.90;;;;;;5093771;28;19908;-69
2023/07/10 12:41:22;;;;;;;;;;;10.90;99.90;;;;;;5093174;28;19915;-70
2023/07/10 12:43:51;;;;;;;;;;;10.80;99.90;;;;;;5093310;28;19908;-68
2023/07/10 12:46:22;;;;;;;;;;;10.90;99.90;;;;;;5093138;28;20395;-69
2023/07/10 12:48:49;;;;;;;;;;;10.80;99.90;;;;;;5093314;28;19909;-69
2023/07/10 12:51:23;;;;;;;;;;;10.80;99.90;;;;;;5093421;28;19908;-69
2023/07/10 12:53:51;;;;;;;;;;;10.60;99.90;;;;;;5093560;28;19970;-69
2023/07/10 12:56:38;;;;;;;;;;;10.80;99.90;;;;;;5093304;28;20280;-69
2023/07/10 12:59:27;;;;;;;;;;;10.60;99.90;;;;;;5093420;28;20277;-69
2023/07/10 13:02:13;;;;;;;;;;;10.60;99.90;;;;;;5085032;28;19908;-69
2023/07/10 13:04:40;;;;;;;;;;;10.60;99.90;;;;;;5092971;28;19908;-68
2023/07/10 13:07:18;;;;;;;;;;;10.70;99.90;;;;;;5093004;28;19923;-69
2023/07/10 13:09:55;;;;;;;;;;;10.50;99.90;;;;;;5093080;28;19975;-68
2023/07/10 13:12:24;;;;;;;;;;;10.60;99.90;;;;;;5093119;28;20281;-67
2023/07/10 13:14:51;;;;;;;;;;;10.70;99.90;;;;;;5092986;28;20003;-68
2023/07/10 13:17:21;;;;;;;;;;;10.70;99.90;;;;;;5092128;28;19915;-70
2023/07/10 13:19:49;;;;;;;;;;;10.60;99.90;;;;;;5092827;28;19908;-69
2023/07/10 13:22:16;;;;;;;;;;;10.60;99.90;;;;;;5093166;28;19956;-69
2023/07/10 13:24:43;;;;;;;;;;;10.60;99.90;;;;;;5093568;28;19908;-70
2023/07/10 13:27:11;;;;;;;;;;;10.60;99.90;;;;;;5092936;28;20300;-68
2023/07/10 13:29:38;;;;;;;;;;;10.60;99.90;;;;;;5092844;28;19908;-69
2023/07/10 13:32:05;;;;;;;;;;;10.50;99.90;;;;;;5092943;28;19912;-69
2023/07/10 13:34:31;;;;;;;;;;;10.60;99.90;;;;;;5092569;28;20368;-69
2023/07/10 13:36:58;;;;;;;;;;;10.50;99.90;;;;;;5092702;28;20293;-69
2023/07/10 13:39:25;;;;;;;;;;;10.50;99.90;;;;;;5092686;28;19908;-69
2023/07/10 13:41:53;;;;;;;;;;;10.50;99.90;;;;;;5092797;28;19908;-69
2023/07/10 13:44:19;;;;;;;;;;;10.60;99.90;;;;;;5092482;28;19923;-69
2023/07/10 13:46:46;;;;;;;;;;;10.40;99.90;;;;;;5092699;28;20277;-69
2023/07/10 13:49:13;;;;;;;;;;;10.50;99.90;;;;;;5092732;28;19908;-69
2023/07/10 13:51:40;;;;;;;;;;;10.40;99.90;;;;;;5092468;28;20288;-68
2023/07/10 13:54:07;;;;;;;;;;;10.40;99.90;;;;;;5092766;28;20296;-69
2023/07/10 13:56:35;;;;;;;;;;;10.40;99.90;;;;;;5095697;28;19908;-69
2023/07/10 13:59:02;;;;;;;;;;;10.30;99.90;;;;;;5096528;28;19908;-70
2023/07/10 14:01:29;;;;;;;;;;;10.20;99.90;;;;;;5096415;28;19908;-70
2023/07/10 14:03:56;;;;;;;;;;;10.20;99.90;;;;;;5096262;28;19908;-69
2023/07/10 14:06:28;;;;;;;;;;;10.20;99.90;;;;;;5096399;28;19916;-69
2023/07/10 14:08:57;;;;;;;;;;;10.20;99.90;;;;;;5096132;28;19973;-70
2023/07/10 14:11:25;;;;;;;;;;;10.20;99.90;;;;;;5078018;28;20388;-68
2023/07/10 14:13:51;;;;;;;;;;;10.20;99.90;;;;;;5096441;28;19908;-69
2023/07/10 14:16:32;;;;;;;;;;;10.00;99.90;;;;;;5096312;28;19908;-69
2023/07/10 14:18:59;;;;;;;;;;;10.00;99.90;;;;;;5078157;28;19912;-70
2023/07/10 14:21:26;;;;;;;;;;;10.10;99.90;;;;;;5096202;28;19908;-70
2023/07/10 14:23:52;;;;;;;;;;;10.10;99.90;;;;;;5095941;28;19908;-69
2023/07/10 14:26:19;;;;;;;;;;;10.00;99.90;;;;;;5096054;28;19920;-68
2023/07/10 14:28:46;;;;;;;;;;;10.00;99.90;;;;;;5096153;28;20046;-69